This is the latest recevied weather packets stored in our database for station/object AI4ZL. If no packets are shown the sender has not sent any weather packets the latest 10 day(s).
| Time | Temp. | Humidity | Pressure | Rain* | Wind** | Luminosity | Snow |
|---|---|---|---|---|---|---|---|
| 1777716631 | 5° C | 99% | 1018.2 hPa | 0 mm | - | 0 W/m² | - |
| 1777714234 | 5° C | 99% | 1018 hPa | 0 mm | - | 0 W/m² | - |
| 1777707026 | 6.11° C | 98% | 1018.4 hPa | 0 mm | - | 0 W/m² | - |
| 1777706431 | 6.11° C | 98% | 1018.4 hPa | 0 mm | - | 0 W/m² | - |
| 1777703422 | 6.67° C | 97% | 1018.7 hPa | 0 mm | - | 0 W/m² | - |
| 1777699818 | 6.67° C | 95% | 1018.6 hPa | 0 mm | - | 0 W/m² | - |
| 1777699223 | 6.67° C | 95% | 1018.5 hPa | 0 mm | - | 0 W/m² | - |
| 1777693817 | 7.78° C | 88% | 1019.1 hPa | 0 mm | - | 0 W/m² | - |
| 1777692626 | 7.78° C | 87% | 1019.2 hPa | 0 mm | - | 0 W/m² | - |
| 1777689022 | 9.44° C | 82% | 1019.4 hPa | 0 mm | - | 0 W/m² | - |
| 1777680028 | 16.67° C | 44% | 1017.6 hPa | 0 mm | - | 35 W/m² | - |
| 1777678227 | 16.67° C | 42% | 1017.3 hPa | 0 mm | - | 89 W/m² | - |
| 1777675829 | 17.78° C | 41% | 1016.7 hPa | 0 mm | - | 175 W/m² | - |
| 1777672840 | 18.89° C | 38% | 1016.7 hPa | 0 mm | - | 388 W/m² | - |
| 1777666224 | 19.44° C | 36% | 1018.1 hPa | 0 mm | - | 358 W/m² | - |
| 1777663826 | 18.33° C | 39% | 1018.7 hPa | 0 mm | - | 702 W/m² | - |
| 1777663232 | 18.33° C | 40% | 1018.7 hPa | 0 mm | - | 713 W/m² | - |
| 1777662620 | 17.78° C | 37% | 1018.8 hPa | 0 mm | - | 694 W/m² | - |
| 1777659053 | 18.89° C | 41% | 1018.7 hPa | 0 mm | - | 731 W/m² | - |
| 1777654816 | 16.67° C | 40% | 1019.5 hPa | 0 mm | - | 707 W/m² | - |
| 1777654221 | 17.22° C | 40% | 1019.6 hPa | 0 mm | - | 637 W/m² | - |
| 1777650042 | 15° C | 41% | 1019.4 hPa | 0 mm | - | 758 W/m² | - |
| 1777649427 | 15.56° C | 43% | 1019.4 hPa | 0 mm | - | 782 W/m² | - |
| 1777643445 | 13.33° C | 62% | 1018.6 hPa | 0 mm | - | 411 W/m² | - |
| 1777638040 | 11.67° C | 84% | 1018.1 hPa | 0 mm | - | 67 W/m² | - |
* Rain latest hour (hover to see other rain measurements)
** Current wind speed in m/s (hover to see current wind gust speed)